<?xml version="1.0" encoding="UTF-8" standalone="no" ?>
<gpx xmlns="http://www.topografix.com/GPX/1/1" xmlns:xsi="http://www.w3.org/2001/XMLSchema-instance" xsi:schemaLocation="http://www.topografix.com/GPX/1/1 http://www.topografix.com/GPX/1/1/gpx.xsd" version="1.1" creator="VisuGPX - https://www.visugpx.com">
  <metadata>
    <name>FRAISSES - 30 AOUT 26</name>
    <desc><![CDATA[ST FERREOL D AUROURE]]></desc>
  </metadata>
  <trk>
    <name><![CDATA[Trace 1788074126995]]></name>
    <extensions>
      <line xmlns="http://www.topografix.com/GPX/gpx_style/0/2">
        <color>0000ff</color>
        <opacity>1</opacity>
        <width>4</width>
        <dasharray>4</dasharray>
      </line>
    </extensions>
    <trkseg>
      <trkpt lat="45.39023" lon="4.26708">
        <ele>461.2</ele>
        <time>2026-08-30T07:15:26.995Z</time>
      </trkpt>
      <trkpt lat="45.39058" lon="4.26709">
        <ele>453.4</ele>
        <time>2026-08-30T07:16:12.993Z</time>
      </trkpt>
      <trkpt lat="45.3907" lon="4.26722">
        <ele>452.3</ele>
        <time>2026-08-30T07:17:15.994Z</time>
      </trkpt>
      <trkpt lat="45.39071" lon="4.26735">
        <ele>451.9</ele>
        <time>2026-08-30T07:17:21.897Z</time>
      </trkpt>
      <trkpt lat="45.39082" lon="4.26743">
        <ele>451.9</ele>
        <time>2026-08-30T07:17:29.994Z</time>
      </trkpt>
      <trkpt lat="45.39108" lon="4.26749">
        <ele>450.9</ele>
        <time>2026-08-30T07:17:48.994Z</time>
      </trkpt>
      <trkpt lat="45.39143" lon="4.26766">
        <ele>445.4</ele>
        <time>2026-08-30T07:18:19.995Z</time>
      </trkpt>
      <trkpt lat="45.39144" lon="4.26739">
        <ele>450.9</ele>
        <time>2026-08-30T07:18:32.994Z</time>
      </trkpt>
      <trkpt lat="45.39182" lon="4.26622">
        <ele>462.9</ele>
        <time>2026-08-30T07:21:25.993Z</time>
      </trkpt>
      <trkpt lat="45.39202" lon="4.26481">
        <ele>455.8</ele>
        <time>2026-08-30T07:22:49.897Z</time>
      </trkpt>
      <trkpt lat="45.3919" lon="4.26446">
        <ele>445.8</ele>
        <time>2026-08-30T07:23:12.994Z</time>
      </trkpt>
      <trkpt lat="45.39203" lon="4.26423">
        <ele>449.2</ele>
        <time>2026-08-30T07:23:29.993Z</time>
      </trkpt>
      <trkpt lat="45.39208" lon="4.26379">
        <ele>455.8</ele>
        <time>2026-08-30T07:23:54.992Z</time>
      </trkpt>
      <trkpt lat="45.3922" lon="4.26362">
        <ele>455.8</ele>
        <time>2026-08-30T07:24:06.994Z</time>
      </trkpt>
      <trkpt lat="45.39228" lon="4.26341">
        <ele>455.8</ele>
        <time>2026-08-30T07:24:18.009Z</time>
      </trkpt>
      <trkpt lat="45.39227" lon="4.26328">
        <ele>457.5</ele>
        <time>2026-08-30T07:24:23.992Z</time>
      </trkpt>
      <trkpt lat="45.39177" lon="4.26236">
        <ele>458.9</ele>
        <time>2026-08-30T07:25:31.992Z</time>
      </trkpt>
      <trkpt lat="45.39153" lon="4.26221">
        <ele>475.4</ele>
        <time>2026-08-30T07:25:54.995Z</time>
      </trkpt>
      <trkpt lat="45.39011" lon="4.26222">
        <ele>479.1</ele>
        <time>2026-08-30T07:27:57.058Z</time>
      </trkpt>
      <trkpt lat="45.38994" lon="4.26231">
        <ele>479.3</ele>
        <time>2026-08-30T07:28:19.895Z</time>
      </trkpt>
      <trkpt lat="45.38961" lon="4.26285">
        <ele>477.5</ele>
        <time>2026-08-30T07:28:56.993Z</time>
      </trkpt>
      <trkpt lat="45.38913" lon="4.26325">
        <ele>481.8</ele>
        <time>2026-08-30T07:29:44.002Z</time>
      </trkpt>
      <trkpt lat="45.38871" lon="4.26372">
        <ele>484</ele>
        <time>2026-08-30T07:30:25.916Z</time>
      </trkpt>
      <trkpt lat="45.38872" lon="4.26375">
        <ele>484</ele>
        <time>2026-08-30T07:30:28.004Z</time>
      </trkpt>
      <trkpt lat="45.38836" lon="4.26399">
        <ele>481.4</ele>
        <time>2026-08-30T07:31:04.059Z</time>
      </trkpt>
      <trkpt lat="45.38797" lon="4.26441">
        <ele>478.8</ele>
        <time>2026-08-30T07:31:41.992Z</time>
      </trkpt>
      <trkpt lat="45.38792" lon="4.26459">
        <ele>478.2</ele>
        <time>2026-08-30T07:31:51.999Z</time>
      </trkpt>
      <trkpt lat="45.38787" lon="4.26464">
        <ele>478.2</ele>
        <time>2026-08-30T07:31:57.991Z</time>
      </trkpt>
      <trkpt lat="45.38695" lon="4.2642">
        <ele>484.1</ele>
        <time>2026-08-30T07:35:14.992Z</time>
      </trkpt>
      <trkpt lat="45.3858" lon="4.26336">
        <ele>497.7</ele>
        <time>2026-08-30T07:37:37.973Z</time>
      </trkpt>
      <trkpt lat="45.38511" lon="4.26297">
        <ele>503.1</ele>
        <time>2026-08-30T07:38:49.016Z</time>
      </trkpt>
      <trkpt lat="45.38455" lon="4.26283">
        <ele>509.9</ele>
        <time>2026-08-30T07:39:35.990Z</time>
      </trkpt>
      <trkpt lat="45.38417" lon="4.26265">
        <ele>527.1</ele>
        <time>2026-08-30T07:40:16.991Z</time>
      </trkpt>
      <trkpt lat="45.384" lon="4.26247">
        <ele>525.1</ele>
        <time>2026-08-30T07:40:33.735Z</time>
      </trkpt>
      <trkpt lat="45.38381" lon="4.26235">
        <ele>525.1</ele>
        <time>2026-08-30T07:40:50.010Z</time>
      </trkpt>
      <trkpt lat="45.38368" lon="4.2624">
        <ele>522.3</ele>
        <time>2026-08-30T07:41:02.997Z</time>
      </trkpt>
      <trkpt lat="45.38349" lon="4.26284">
        <ele>525.6</ele>
        <time>2026-08-30T07:41:28.991Z</time>
      </trkpt>
      <trkpt lat="45.3834" lon="4.2629">
        <ele>525.6</ele>
        <time>2026-08-30T07:41:36.863Z</time>
      </trkpt>
      <trkpt lat="45.38321" lon="4.26361">
        <ele>526.6</ele>
      </trkpt>
      <trkpt lat="45.38311" lon="4.26355">
        <ele>527.9</ele>
        <time>2026-08-30T07:42:21.923Z</time>
      </trkpt>
      <trkpt lat="45.38281" lon="4.26302">
        <ele>530.5</ele>
        <time>2026-08-30T07:42:56.990Z</time>
      </trkpt>
      <trkpt lat="45.38267" lon="4.26268">
        <ele>530.9</ele>
        <time>2026-08-30T07:43:19.072Z</time>
      </trkpt>
      <trkpt lat="45.38257" lon="4.26255">
        <ele>530.7</ele>
        <time>2026-08-30T07:43:31.072Z</time>
      </trkpt>
      <trkpt lat="45.38251" lon="4.26253">
        <ele>530.7</ele>
        <time>2026-08-30T07:43:36.991Z</time>
      </trkpt>
      <trkpt lat="45.38179" lon="4.26151">
        <ele>529.6</ele>
        <time>2026-08-30T07:45:05.991Z</time>
      </trkpt>
      <trkpt lat="45.38168" lon="4.26143">
        <ele>529.6</ele>
        <time>2026-08-30T07:45:17.048Z</time>
      </trkpt>
      <trkpt lat="45.38154" lon="4.26124">
        <ele>529.6</ele>
        <time>2026-08-30T07:45:35.000Z</time>
      </trkpt>
      <trkpt lat="45.38145" lon="4.26092">
        <ele>529.6</ele>
        <time>2026-08-30T07:45:57.957Z</time>
      </trkpt>
      <trkpt lat="45.38139" lon="4.26088">
        <ele>529.6</ele>
        <time>2026-08-30T07:46:04.955Z</time>
      </trkpt>
      <trkpt lat="45.38127" lon="4.26097">
        <ele>529.6</ele>
        <time>2026-08-30T07:46:17.991Z</time>
      </trkpt>
      <trkpt lat="45.38127" lon="4.26121">
        <ele>558.3</ele>
        <time>2026-08-30T07:46:31.065Z</time>
      </trkpt>
      <trkpt lat="45.38119" lon="4.26142">
        <ele>565</ele>
        <time>2026-08-30T07:46:41.380Z</time>
      </trkpt>
      <trkpt lat="45.38115" lon="4.26143">
        <ele>567.3</ele>
        <time>2026-08-30T07:46:44.880Z</time>
      </trkpt>
      <trkpt lat="45.38092" lon="4.26095">
        <ele>566.3</ele>
        <time>2026-08-30T07:47:19.989Z</time>
      </trkpt>
      <trkpt lat="45.38076" lon="4.26092">
        <ele>568.5</ele>
        <time>2026-08-30T07:47:30.990Z</time>
      </trkpt>
      <trkpt lat="45.3807" lon="4.26087">
        <ele>572.2</ele>
        <time>2026-08-30T07:47:37.068Z</time>
      </trkpt>
      <trkpt lat="45.38072" lon="4.26079">
        <ele>574.7</ele>
        <time>2026-08-30T07:47:40.989Z</time>
      </trkpt>
      <trkpt lat="45.38081" lon="4.26073">
        <ele>574.7</ele>
        <time>2026-08-30T07:47:47.990Z</time>
      </trkpt>
      <trkpt lat="45.38075" lon="4.2606">
        <ele>570.8</ele>
        <time>2026-08-30T07:48:00.000Z</time>
      </trkpt>
      <trkpt lat="45.38057" lon="4.26046">
        <ele>578.5</ele>
        <time>2026-08-30T07:48:23.990Z</time>
      </trkpt>
      <trkpt lat="45.38056" lon="4.26031">
        <ele>586.9</ele>
        <time>2026-08-30T07:48:44.990Z</time>
      </trkpt>
      <trkpt lat="45.38022" lon="4.25975">
        <ele>600.2</ele>
        <time>2026-08-30T07:49:50.008Z</time>
      </trkpt>
      <trkpt lat="45.38016" lon="4.25935">
        <ele>593.8</ele>
        <time>2026-08-30T07:50:12.990Z</time>
      </trkpt>
      <trkpt lat="45.38019" lon="4.25893">
        <ele>604.6</ele>
        <time>2026-08-30T07:50:56.990Z</time>
      </trkpt>
      <trkpt lat="45.38016" lon="4.25874">
        <ele>612.8</ele>
        <time>2026-08-30T07:51:13.990Z</time>
      </trkpt>
      <trkpt lat="45.37997" lon="4.25847">
        <ele>620.9</ele>
        <time>2026-08-30T07:51:38.990Z</time>
      </trkpt>
      <trkpt lat="45.37988" lon="4.25819">
        <ele>611.6</ele>
        <time>2026-08-30T07:51:51.990Z</time>
      </trkpt>
      <trkpt lat="45.37968" lon="4.25795">
        <ele>612.7</ele>
        <time>2026-08-30T07:52:19.990Z</time>
      </trkpt>
      <trkpt lat="45.37958" lon="4.25743">
        <ele>605.6</ele>
        <time>2026-08-30T07:52:54.991Z</time>
      </trkpt>
      <trkpt lat="45.37936" lon="4.25732">
        <ele>610.7</ele>
        <time>2026-08-30T07:53:31.989Z</time>
      </trkpt>
      <trkpt lat="45.37926" lon="4.25758">
        <ele>621.1</ele>
        <time>2026-08-30T07:53:55.019Z</time>
      </trkpt>
      <trkpt lat="45.37904" lon="4.25776">
        <ele>619.8</ele>
        <time>2026-08-30T07:54:19.989Z</time>
      </trkpt>
      <trkpt lat="45.37893" lon="4.25791">
        <ele>622.1</ele>
        <time>2026-08-30T07:54:31.989Z</time>
      </trkpt>
      <trkpt lat="45.37883" lon="4.25761">
        <ele>620.6</ele>
        <time>2026-08-30T07:54:47.990Z</time>
      </trkpt>
      <trkpt lat="45.37888" lon="4.25757">
        <ele>622.8</ele>
        <time>2026-08-30T07:54:52.990Z</time>
      </trkpt>
      <trkpt lat="45.37887" lon="4.25747">
        <ele>622.3</ele>
        <time>2026-08-30T07:54:59.920Z</time>
      </trkpt>
      <trkpt lat="45.3787" lon="4.25726">
        <ele>621.5</ele>
        <time>2026-08-30T07:55:21.072Z</time>
      </trkpt>
      <trkpt lat="45.37867" lon="4.25708">
        <ele>617.1</ele>
        <time>2026-08-30T07:55:32.988Z</time>
      </trkpt>
      <trkpt lat="45.37872" lon="4.25692">
        <ele>632.6</ele>
        <time>2026-08-30T07:55:54.999Z</time>
      </trkpt>
      <trkpt lat="45.37867" lon="4.25689">
        <ele>631.7</ele>
        <time>2026-08-30T07:55:59.989Z</time>
      </trkpt>
      <trkpt lat="45.37854" lon="4.25691">
        <ele>631.9</ele>
        <time>2026-08-30T07:56:12.988Z</time>
      </trkpt>
      <trkpt lat="45.37783" lon="4.2566">
        <ele>640.2</ele>
        <time>2026-08-30T07:57:24.996Z</time>
      </trkpt>
      <trkpt lat="45.37773" lon="4.25645">
        <ele>642.1</ele>
        <time>2026-08-30T07:57:39.989Z</time>
      </trkpt>
      <trkpt lat="45.37781" lon="4.2563">
        <ele>640.7</ele>
        <time>2026-08-30T07:57:48.018Z</time>
      </trkpt>
      <trkpt lat="45.37805" lon="4.25618">
        <ele>637.7</ele>
        <time>2026-08-30T07:58:07.914Z</time>
      </trkpt>
      <trkpt lat="45.37815" lon="4.25588">
        <ele>644.1</ele>
        <time>2026-08-30T07:58:31.989Z</time>
      </trkpt>
      <trkpt lat="45.3782" lon="4.25555">
        <ele>659.7</ele>
        <time>2026-08-30T07:58:58.989Z</time>
      </trkpt>
      <trkpt lat="45.37826" lon="4.25554">
        <ele>661.8</ele>
        <time>2026-08-30T07:59:04.998Z</time>
      </trkpt>
      <trkpt lat="45.37867" lon="4.25497">
        <ele>662.7</ele>
        <time>2026-08-30T07:59:57.080Z</time>
      </trkpt>
      <trkpt lat="45.37893" lon="4.25476">
        <ele>663.3</ele>
        <time>2026-08-30T08:00:21.989Z</time>
      </trkpt>
      <trkpt lat="45.37914" lon="4.25452">
        <ele>668.1</ele>
        <time>2026-08-30T08:00:44.068Z</time>
      </trkpt>
      <trkpt lat="45.37927" lon="4.25444">
        <ele>664.3</ele>
        <time>2026-08-30T08:00:55.988Z</time>
      </trkpt>
      <trkpt lat="45.37942" lon="4.25447">
        <ele>658.6</ele>
        <time>2026-08-30T08:01:07.989Z</time>
      </trkpt>
      <trkpt lat="45.37957" lon="4.25433">
        <ele>670.6</ele>
        <time>2026-08-30T08:01:35.998Z</time>
      </trkpt>
      <trkpt lat="45.37954" lon="4.25433">
        <ele>543.3</ele>
        <time>2026-08-30T08:01:47.989Z</time>
      </trkpt>
      <trkpt lat="45.37994" lon="4.25404">
        <ele>672.5</ele>
        <time>2026-08-30T08:02:22.938Z</time>
      </trkpt>
      <trkpt lat="45.38047" lon="4.25346">
        <ele>681.6</ele>
        <time>2026-08-30T08:03:26.989Z</time>
      </trkpt>
      <trkpt lat="45.38059" lon="4.2535">
        <ele>681.6</ele>
        <time>2026-08-30T08:03:37.009Z</time>
      </trkpt>
      <trkpt lat="45.38094" lon="4.25342">
        <ele>687.1</ele>
        <time>2026-08-30T08:04:01.997Z</time>
      </trkpt>
      <trkpt lat="45.38137" lon="4.25339">
        <ele>701.1</ele>
        <time>2026-08-30T08:04:44.000Z</time>
      </trkpt>
      <trkpt lat="45.38196" lon="4.25291">
        <ele>704.8</ele>
        <time>2026-08-30T08:05:45.934Z</time>
      </trkpt>
      <trkpt lat="45.38204" lon="4.2529">
        <ele>705</ele>
        <time>2026-08-30T08:05:51.988Z</time>
      </trkpt>
      <trkpt lat="45.38289" lon="4.2519">
        <ele>704.7</ele>
        <time>2026-08-30T08:07:28.082Z</time>
      </trkpt>
      <trkpt lat="45.38309" lon="4.25158">
        <ele>703.7</ele>
        <time>2026-08-30T08:07:52.990Z</time>
      </trkpt>
      <trkpt lat="45.38354" lon="4.25044">
        <ele>700.1</ele>
        <time>2026-08-30T08:09:04.989Z</time>
      </trkpt>
      <trkpt lat="45.38368" lon="4.2498">
        <ele>697.8</ele>
        <time>2026-08-30T08:09:43.897Z</time>
      </trkpt>
      <trkpt lat="45.38375" lon="4.24975">
        <ele>695.2</ele>
        <time>2026-08-30T08:09:49.988Z</time>
      </trkpt>
      <trkpt lat="45.38412" lon="4.2497">
        <ele>696.8</ele>
        <time>2026-08-30T08:10:20.988Z</time>
      </trkpt>
      <trkpt lat="45.38442" lon="4.24976">
        <ele>693.9</ele>
        <time>2026-08-30T08:10:44.064Z</time>
      </trkpt>
      <trkpt lat="45.38464" lon="4.24989">
        <ele>693.2</ele>
        <time>2026-08-30T08:11:01.993Z</time>
      </trkpt>
      <trkpt lat="45.3853" lon="4.25012">
        <ele>693.9</ele>
        <time>2026-08-30T08:11:52.989Z</time>
      </trkpt>
      <trkpt lat="45.38545" lon="4.25012">
        <ele>695.3</ele>
        <time>2026-08-30T08:12:04.066Z</time>
      </trkpt>
      <trkpt lat="45.38597" lon="4.24978">
        <ele>693.5</ele>
        <time>2026-08-30T08:12:52.991Z</time>
      </trkpt>
      <trkpt lat="45.38626" lon="4.24934">
        <ele>682.3</ele>
        <time>2026-08-30T08:13:27.987Z</time>
      </trkpt>
      <trkpt lat="45.38638" lon="4.24892">
        <ele>675.2</ele>
        <time>2026-08-30T08:13:53.976Z</time>
      </trkpt>
      <trkpt lat="45.38645" lon="4.24786">
        <ele>684.3</ele>
        <time>2026-08-30T08:14:53.987Z</time>
      </trkpt>
      <trkpt lat="45.38641" lon="4.24775">
        <ele>684.5</ele>
        <time>2026-08-30T08:14:59.987Z</time>
      </trkpt>
      <trkpt lat="45.3864" lon="4.24726">
        <ele>685.3</ele>
        <time>2026-08-30T08:15:25.986Z</time>
      </trkpt>
      <trkpt lat="45.38652" lon="4.24663">
        <ele>689.4</ele>
        <time>2026-08-30T08:16:02.989Z</time>
      </trkpt>
      <trkpt lat="45.3865" lon="4.24642">
        <ele>684.9</ele>
        <time>2026-08-30T08:16:14.986Z</time>
      </trkpt>
      <trkpt lat="45.38621" lon="4.24604">
        <ele>678.4</ele>
        <time>2026-08-30T08:16:48.065Z</time>
      </trkpt>
      <trkpt lat="45.38617" lon="4.24585">
        <ele>677.6</ele>
        <time>2026-08-30T08:16:59.996Z</time>
      </trkpt>
      <trkpt lat="45.38629" lon="4.24519">
        <ele>689.8</ele>
        <time>2026-08-30T08:17:34.987Z</time>
      </trkpt>
      <trkpt lat="45.38622" lon="4.24473">
        <ele>685.5</ele>
        <time>2026-08-30T08:18:04.987Z</time>
      </trkpt>
      <trkpt lat="45.38626" lon="4.24453">
        <ele>689</ele>
        <time>2026-08-30T08:18:15.991Z</time>
      </trkpt>
      <trkpt lat="45.38648" lon="4.24442">
        <ele>683.7</ele>
        <time>2026-08-30T08:18:36.986Z</time>
      </trkpt>
      <trkpt lat="45.38667" lon="4.24423">
        <ele>684.8</ele>
        <time>2026-08-30T08:19:06.893Z</time>
      </trkpt>
      <trkpt lat="45.38666" lon="4.24411">
        <ele>681</ele>
        <time>2026-08-30T08:19:12.957Z</time>
      </trkpt>
      <trkpt lat="45.3866" lon="4.24401">
        <ele>678</ele>
        <time>2026-08-30T08:19:18.986Z</time>
      </trkpt>
      <trkpt lat="45.38635" lon="4.24418">
        <ele>685</ele>
        <time>2026-08-30T08:19:44.987Z</time>
      </trkpt>
      <trkpt lat="45.38597" lon="4.24428">
        <ele>685</ele>
        <time>2026-08-30T08:20:15.988Z</time>
      </trkpt>
      <trkpt lat="45.38585" lon="4.24435">
        <ele>685.1</ele>
        <time>2026-08-30T08:20:25.986Z</time>
      </trkpt>
      <trkpt lat="45.38575" lon="4.2443">
        <ele>691.8</ele>
        <time>2026-08-30T08:20:39.994Z</time>
      </trkpt>
      <trkpt lat="45.38556" lon="4.24441">
        <ele>695.2</ele>
        <time>2026-08-30T08:20:58.986Z</time>
      </trkpt>
      <trkpt lat="45.3853" lon="4.24449">
        <ele>694.7</ele>
        <time>2026-08-30T08:21:22.096Z</time>
      </trkpt>
      <trkpt lat="45.38503" lon="4.24466">
        <ele>699.9</ele>
        <time>2026-08-30T08:21:46.929Z</time>
      </trkpt>
      <trkpt lat="45.38466" lon="4.24444">
        <ele>705.8</ele>
        <time>2026-08-30T08:22:23.987Z</time>
      </trkpt>
      <trkpt lat="45.38454" lon="4.24441">
        <ele>705.8</ele>
        <time>2026-08-30T08:22:44.987Z</time>
      </trkpt>
      <trkpt lat="45.38453" lon="4.24437">
        <ele>705.7</ele>
        <time>2026-08-30T08:26:39.073Z</time>
      </trkpt>
      <trkpt lat="45.38447" lon="4.24438">
        <ele>706</ele>
        <time>2026-08-30T08:26:57.994Z</time>
      </trkpt>
      <trkpt lat="45.38449" lon="4.24443">
        <ele>706.9</ele>
        <time>2026-08-30T08:27:03.986Z</time>
      </trkpt>
      <trkpt lat="45.38449" lon="4.24436">
        <ele>706.7</ele>
        <time>2026-08-30T08:27:21.986Z</time>
      </trkpt>
      <trkpt lat="45.38455" lon="4.24441">
        <ele>708.7</ele>
        <time>2026-08-30T08:28:00.986Z</time>
      </trkpt>
      <trkpt lat="45.38447" lon="4.24443">
        <ele>710.8</ele>
        <time>2026-08-30T08:32:30.986Z</time>
      </trkpt>
      <trkpt lat="45.38451" lon="4.24441">
        <ele>710.4</ele>
        <time>2026-08-30T08:33:04.006Z</time>
      </trkpt>
      <trkpt lat="45.38446" lon="4.24448">
        <ele>711.1</ele>
        <time>2026-08-30T08:33:28.986Z</time>
      </trkpt>
      <trkpt lat="45.38446" lon="4.24444">
        <ele>711.3</ele>
        <time>2026-08-30T08:37:25.985Z</time>
      </trkpt>
      <trkpt lat="45.38427" lon="4.24451">
        <ele>709.3</ele>
        <time>2026-08-30T08:44:00.995Z</time>
      </trkpt>
      <trkpt lat="45.3828" lon="4.24558">
        <ele>718.4</ele>
        <time>2026-08-30T08:46:23.983Z</time>
      </trkpt>
      <trkpt lat="45.38178" lon="4.24641">
        <ele>720.9</ele>
        <time>2026-08-30T08:47:58.986Z</time>
      </trkpt>
      <trkpt lat="45.38122" lon="4.24672">
        <ele>722.5</ele>
        <time>2026-08-30T08:48:45.991Z</time>
      </trkpt>
      <trkpt lat="45.38112" lon="4.24673">
        <ele>722.3</ele>
        <time>2026-08-30T08:48:58.998Z</time>
      </trkpt>
      <trkpt lat="45.38109" lon="4.24677">
        <ele>723.3</ele>
        <time>2026-08-30T08:49:11.984Z</time>
      </trkpt>
      <trkpt lat="45.38073" lon="4.24686">
        <ele>723.6</ele>
        <time>2026-08-30T08:49:39.984Z</time>
      </trkpt>
      <trkpt lat="45.38031" lon="4.24712">
        <ele>721.3</ele>
        <time>2026-08-30T08:50:16.983Z</time>
      </trkpt>
      <trkpt lat="45.38023" lon="4.24713">
        <ele>719</ele>
        <time>2026-08-30T08:50:23.994Z</time>
      </trkpt>
      <trkpt lat="45.38018" lon="4.24721">
        <ele>717.9</ele>
        <time>2026-08-30T08:50:29.949Z</time>
      </trkpt>
      <trkpt lat="45.37994" lon="4.24735">
        <ele>715.3</ele>
        <time>2026-08-30T08:50:50.984Z</time>
      </trkpt>
      <trkpt lat="45.37963" lon="4.24746">
        <ele>711.3</ele>
        <time>2026-08-30T08:51:14.958Z</time>
      </trkpt>
      <trkpt lat="45.37938" lon="4.24747">
        <ele>706.8</ele>
        <time>2026-08-30T08:51:32.983Z</time>
      </trkpt>
      <trkpt lat="45.37893" lon="4.24763">
        <ele>701.8</ele>
        <time>2026-08-30T08:52:09.983Z</time>
      </trkpt>
      <trkpt lat="45.37883" lon="4.24763">
        <ele>701.1</ele>
        <time>2026-08-30T08:52:17.033Z</time>
      </trkpt>
      <trkpt lat="45.37835" lon="4.24699">
        <ele>692.4</ele>
        <time>2026-08-30T08:53:08.001Z</time>
      </trkpt>
      <trkpt lat="45.37827" lon="4.24678">
        <ele>689.9</ele>
        <time>2026-08-30T08:53:21.011Z</time>
      </trkpt>
      <trkpt lat="45.37852" lon="4.24659">
        <ele>687.2</ele>
        <time>2026-08-30T08:53:41.983Z</time>
      </trkpt>
      <trkpt lat="45.37862" lon="4.24639">
        <ele>685.2</ele>
        <time>2026-08-30T08:53:56.983Z</time>
      </trkpt>
      <trkpt lat="45.37863" lon="4.24628">
        <ele>685.3</ele>
        <time>2026-08-30T08:54:01.983Z</time>
      </trkpt>
      <trkpt lat="45.37874" lon="4.24612">
        <ele>689.2</ele>
        <time>2026-08-30T08:54:13.982Z</time>
      </trkpt>
      <trkpt lat="45.37884" lon="4.24586">
        <ele>690</ele>
        <time>2026-08-30T08:54:30.983Z</time>
      </trkpt>
      <trkpt lat="45.37878" lon="4.24566">
        <ele>686.1</ele>
        <time>2026-08-30T08:54:42.983Z</time>
      </trkpt>
      <trkpt lat="45.37884" lon="4.24484">
        <ele>675</ele>
        <time>2026-08-30T08:55:31.008Z</time>
      </trkpt>
      <trkpt lat="45.37897" lon="4.2445">
        <ele>670.8</ele>
        <time>2026-08-30T08:55:54.983Z</time>
      </trkpt>
      <trkpt lat="45.37897" lon="4.24437">
        <ele>669.8</ele>
        <time>2026-08-30T08:56:03.829Z</time>
      </trkpt>
      <trkpt lat="45.37911" lon="4.24427">
        <ele>665.3</ele>
        <time>2026-08-30T08:56:15.982Z</time>
      </trkpt>
      <trkpt lat="45.37922" lon="4.24412">
        <ele>670.1</ele>
        <time>2026-08-30T08:56:27.986Z</time>
      </trkpt>
      <trkpt lat="45.3792" lon="4.24408">
        <ele>669.7</ele>
        <time>2026-08-30T08:56:39.982Z</time>
      </trkpt>
      <trkpt lat="45.3794" lon="4.24393">
        <ele>666.3</ele>
        <time>2026-08-30T08:56:57.984Z</time>
      </trkpt>
      <trkpt lat="45.37955" lon="4.24361">
        <ele>665.9</ele>
        <time>2026-08-30T08:57:26.992Z</time>
      </trkpt>
      <trkpt lat="45.37955" lon="4.24342">
        <ele>664</ele>
        <time>2026-08-30T08:57:38.983Z</time>
      </trkpt>
      <trkpt lat="45.37977" lon="4.24333">
        <ele>661.1</ele>
        <time>2026-08-30T08:57:57.011Z</time>
      </trkpt>
      <trkpt lat="45.37984" lon="4.24315">
        <ele>660.3</ele>
        <time>2026-08-30T08:58:09.984Z</time>
      </trkpt>
      <trkpt lat="45.37975" lon="4.24268">
        <ele>651</ele>
        <time>2026-08-30T08:58:36.030Z</time>
      </trkpt>
      <trkpt lat="45.37975" lon="4.24227">
        <ele>635.3</ele>
        <time>2026-08-30T08:59:09.014Z</time>
      </trkpt>
      <trkpt lat="45.37981" lon="4.24202">
        <ele>633.9</ele>
        <time>2026-08-30T08:59:21.982Z</time>
      </trkpt>
      <trkpt lat="45.37985" lon="4.24136">
        <ele>633.8</ele>
        <time>2026-08-30T08:59:59.982Z</time>
      </trkpt>
      <trkpt lat="45.37979" lon="4.24113">
        <ele>627.5</ele>
        <time>2026-08-30T09:00:14.010Z</time>
      </trkpt>
      <trkpt lat="45.37969" lon="4.24097">
        <ele>622.4</ele>
        <time>2026-08-30T09:00:25.932Z</time>
      </trkpt>
      <trkpt lat="45.37957" lon="4.24057">
        <ele>620</ele>
        <time>2026-08-30T09:00:49.984Z</time>
      </trkpt>
      <trkpt lat="45.37933" lon="4.24071">
        <ele>618.2</ele>
        <time>2026-08-30T09:01:11.982Z</time>
      </trkpt>
      <trkpt lat="45.37915" lon="4.24164">
        <ele>618.7</ele>
        <time>2026-08-30T09:02:03.025Z</time>
      </trkpt>
      <trkpt lat="45.37909" lon="4.2426">
        <ele>624.6</ele>
        <time>2026-08-30T09:02:58.981Z</time>
      </trkpt>
      <trkpt lat="45.37893" lon="4.24285">
        <ele>631.8</ele>
        <time>2026-08-30T09:03:22.983Z</time>
      </trkpt>
      <trkpt lat="45.37876" lon="4.24291">
        <ele>636.1</ele>
        <time>2026-08-30T09:03:36.982Z</time>
      </trkpt>
      <trkpt lat="45.37868" lon="4.2431">
        <ele>633.8</ele>
        <time>2026-08-30T09:03:48.982Z</time>
      </trkpt>
      <trkpt lat="45.37849" lon="4.24328">
        <ele>633.9</ele>
        <time>2026-08-30T09:04:08.986Z</time>
      </trkpt>
      <trkpt lat="45.37823" lon="4.24333">
        <ele>632.5</ele>
        <time>2026-08-30T09:04:25.985Z</time>
      </trkpt>
      <trkpt lat="45.3781" lon="4.24344">
        <ele>624.1</ele>
        <time>2026-08-30T09:04:37.982Z</time>
      </trkpt>
      <trkpt lat="45.3778" lon="4.24356">
        <ele>628.1</ele>
        <time>2026-08-30T09:05:01.982Z</time>
      </trkpt>
      <trkpt lat="45.37756" lon="4.24332">
        <ele>630.3</ele>
        <time>2026-08-30T09:05:26.982Z</time>
      </trkpt>
      <trkpt lat="45.37729" lon="4.24319">
        <ele>630</ele>
        <time>2026-08-30T09:05:49.982Z</time>
      </trkpt>
      <trkpt lat="45.37654" lon="4.24306">
        <ele>635.9</ele>
        <time>2026-08-30T09:06:52.981Z</time>
      </trkpt>
      <trkpt lat="45.37656" lon="4.243">
        <ele>636.4</ele>
        <time>2026-08-30T09:07:04.981Z</time>
      </trkpt>
      <trkpt lat="45.37645" lon="4.24306">
        <ele>640.1</ele>
        <time>2026-08-30T09:07:17.983Z</time>
      </trkpt>
      <trkpt lat="45.37616" lon="4.24308">
        <ele>645.7</ele>
        <time>2026-08-30T09:07:42.982Z</time>
      </trkpt>
      <trkpt lat="45.37596" lon="4.2432">
        <ele>646.6</ele>
        <time>2026-08-30T09:08:01.982Z</time>
      </trkpt>
      <trkpt lat="45.37582" lon="4.2432">
        <ele>650.2</ele>
        <time>2026-08-30T09:08:13.982Z</time>
      </trkpt>
      <trkpt lat="45.37562" lon="4.24311">
        <ele>649.4</ele>
        <time>2026-08-30T09:08:31.981Z</time>
      </trkpt>
      <trkpt lat="45.37553" lon="4.24291">
        <ele>654</ele>
        <time>2026-08-30T09:08:43.982Z</time>
      </trkpt>
      <trkpt lat="45.37529" lon="4.24266">
        <ele>653.2</ele>
        <time>2026-08-30T09:09:06.994Z</time>
      </trkpt>
      <trkpt lat="45.3751" lon="4.24254">
        <ele>652</ele>
        <time>2026-08-30T09:09:23.980Z</time>
      </trkpt>
      <trkpt lat="45.37499" lon="4.24256">
        <ele>647.9</ele>
        <time>2026-08-30T09:09:30.982Z</time>
      </trkpt>
      <trkpt lat="45.3746" lon="4.24288">
        <ele>644.6</ele>
        <time>2026-08-30T09:10:04.980Z</time>
      </trkpt>
      <trkpt lat="45.37437" lon="4.24335">
        <ele>648.9</ele>
        <time>2026-08-30T09:10:35.989Z</time>
      </trkpt>
      <trkpt lat="45.3743" lon="4.24337">
        <ele>649.2</ele>
        <time>2026-08-30T09:10:42.997Z</time>
      </trkpt>
      <trkpt lat="45.3742" lon="4.24348">
        <ele>655.2</ele>
        <time>2026-08-30T09:10:54.981Z</time>
      </trkpt>
      <trkpt lat="45.37405" lon="4.24394">
        <ele>657.6</ele>
        <time>2026-08-30T09:11:21.981Z</time>
      </trkpt>
      <trkpt lat="45.37402" lon="4.24433">
        <ele>658.9</ele>
        <time>2026-08-30T09:11:57.981Z</time>
      </trkpt>
      <trkpt lat="45.37412" lon="4.2444">
        <ele>657.3</ele>
        <time>2026-08-30T09:12:09.891Z</time>
      </trkpt>
      <trkpt lat="45.37417" lon="4.24437">
        <ele>656.8</ele>
        <time>2026-08-30T09:12:14.981Z</time>
      </trkpt>
      <trkpt lat="45.37424" lon="4.24409">
        <ele>663.3</ele>
        <time>2026-08-30T09:12:37.996Z</time>
      </trkpt>
      <trkpt lat="45.37432" lon="4.24394">
        <ele>665.7</ele>
        <time>2026-08-30T09:12:50.981Z</time>
      </trkpt>
      <trkpt lat="45.37452" lon="4.24375">
        <ele>667.7</ele>
        <time>2026-08-30T09:13:16.065Z</time>
      </trkpt>
      <trkpt lat="45.37461" lon="4.24373">
        <ele>666</ele>
        <time>2026-08-30T09:13:23.958Z</time>
      </trkpt>
      <trkpt lat="45.37481" lon="4.24385">
        <ele>667.6</ele>
        <time>2026-08-30T09:13:41.981Z</time>
      </trkpt>
      <trkpt lat="45.37502" lon="4.24407">
        <ele>667.6</ele>
        <time>2026-08-30T09:14:07.989Z</time>
      </trkpt>
      <trkpt lat="45.37502" lon="4.24422">
        <ele>667.2</ele>
        <time>2026-08-30T09:14:31.982Z</time>
      </trkpt>
      <trkpt lat="45.37516" lon="4.2444">
        <ele>668.1</ele>
        <time>2026-08-30T09:15:05.982Z</time>
      </trkpt>
      <trkpt lat="45.3751" lon="4.24451">
        <ele>670.5</ele>
        <time>2026-08-30T09:15:20.981Z</time>
      </trkpt>
      <trkpt lat="45.37527" lon="4.24462">
        <ele>670.3</ele>
        <time>2026-08-30T09:15:25.993Z</time>
      </trkpt>
      <trkpt lat="45.3757" lon="4.24528">
        <ele>678.4</ele>
        <time>2026-08-30T09:16:23.992Z</time>
      </trkpt>
      <trkpt lat="45.37587" lon="4.24541">
        <ele>679.5</ele>
        <time>2026-08-30T09:16:40.980Z</time>
      </trkpt>
      <trkpt lat="45.37602" lon="4.24564">
        <ele>679.2</ele>
        <time>2026-08-30T09:16:57.979Z</time>
      </trkpt>
      <trkpt lat="45.37612" lon="4.24594">
        <ele>680.3</ele>
        <time>2026-08-30T09:17:19.979Z</time>
      </trkpt>
      <trkpt lat="45.37628" lon="4.2462">
        <ele>680.6</ele>
        <time>2026-08-30T09:17:45.979Z</time>
      </trkpt>
      <trkpt lat="45.37636" lon="4.24633">
        <ele>684.2</ele>
        <time>2026-08-30T09:19:23.980Z</time>
      </trkpt>
      <trkpt lat="45.37653" lon="4.24665">
        <ele>681.1</ele>
        <time>2026-08-30T09:20:05.979Z</time>
      </trkpt>
      <trkpt lat="45.37683" lon="4.24705">
        <ele>679.7</ele>
        <time>2026-08-30T09:21:22.981Z</time>
      </trkpt>
      <trkpt lat="45.37684" lon="4.24702">
        <ele>680</ele>
        <time>2026-08-30T09:21:34.980Z</time>
      </trkpt>
      <trkpt lat="45.37696" lon="4.2472">
        <ele>679.7</ele>
        <time>2026-08-30T09:21:47.004Z</time>
      </trkpt>
      <trkpt lat="45.37723" lon="4.24746">
        <ele>686.1</ele>
        <time>2026-08-30T09:22:14.980Z</time>
      </trkpt>
      <trkpt lat="45.37738" lon="4.24767">
        <ele>688.2</ele>
        <time>2026-08-30T09:22:32.985Z</time>
      </trkpt>
      <trkpt lat="45.37702" lon="4.24821">
        <ele>687.4</ele>
        <time>2026-08-30T09:23:13.922Z</time>
      </trkpt>
      <trkpt lat="45.37698" lon="4.24835">
        <ele>686.1</ele>
        <time>2026-08-30T09:23:40.988Z</time>
      </trkpt>
      <trkpt lat="45.37698" lon="4.24832">
        <ele>683.6</ele>
        <time>2026-08-30T09:23:50.979Z</time>
      </trkpt>
      <trkpt lat="45.37696" lon="4.24871">
        <ele>685.6</ele>
        <time>2026-08-30T09:24:14.991Z</time>
      </trkpt>
      <trkpt lat="45.37673" lon="4.24962">
        <ele>685.5</ele>
        <time>2026-08-30T09:25:24.979Z</time>
      </trkpt>
      <trkpt lat="45.37637" lon="4.25056">
        <ele>682.6</ele>
        <time>2026-08-30T09:26:22.979Z</time>
      </trkpt>
      <trkpt lat="45.37624" lon="4.25079">
        <ele>682.6</ele>
        <time>2026-08-30T09:26:38.979Z</time>
      </trkpt>
      <trkpt lat="45.37597" lon="4.25101">
        <ele>669.7</ele>
        <time>2026-08-30T09:27:04.980Z</time>
      </trkpt>
      <trkpt lat="45.37571" lon="4.25108">
        <ele>673.6</ele>
        <time>2026-08-30T09:28:02.979Z</time>
      </trkpt>
      <trkpt lat="45.37537" lon="4.251">
        <ele>672.8</ele>
        <time>2026-08-30T09:28:32.039Z</time>
      </trkpt>
      <trkpt lat="45.37491" lon="4.25076">
        <ele>668.7</ele>
        <time>2026-08-30T09:29:15.979Z</time>
      </trkpt>
      <trkpt lat="45.37419" lon="4.25047">
        <ele>662.7</ele>
        <time>2026-08-30T09:30:18.980Z</time>
      </trkpt>
      <trkpt lat="45.37406" lon="4.25029">
        <ele>661.2</ele>
        <time>2026-08-30T09:30:45.978Z</time>
      </trkpt>
      <trkpt lat="45.37352" lon="4.25004">
        <ele>653.8</ele>
        <time>2026-08-30T09:31:31.977Z</time>
      </trkpt>
      <trkpt lat="45.37327" lon="4.24987">
        <ele>651</ele>
        <time>2026-08-30T09:31:54.978Z</time>
      </trkpt>
      <trkpt lat="45.37315" lon="4.24974">
        <ele>649.8</ele>
        <time>2026-08-30T09:32:08.978Z</time>
      </trkpt>
      <trkpt lat="45.37303" lon="4.24944">
        <ele>650.2</ele>
        <time>2026-08-30T09:32:31.978Z</time>
      </trkpt>
      <trkpt lat="45.37255" lon="4.24885">
        <ele>642.5</ele>
        <time>2026-08-30T09:33:23.001Z</time>
      </trkpt>
      <trkpt lat="45.3723" lon="4.24812">
        <ele>633.3</ele>
        <time>2026-08-30T09:34:09.957Z</time>
      </trkpt>
      <trkpt lat="45.37195" lon="4.24769">
        <ele>626.1</ele>
        <time>2026-08-30T09:34:46.977Z</time>
      </trkpt>
      <trkpt lat="45.37189" lon="4.24772">
        <ele>626.9</ele>
        <time>2026-08-30T09:35:12.065Z</time>
      </trkpt>
      <trkpt lat="45.37172" lon="4.2475">
        <ele>620.2</ele>
        <time>2026-08-30T09:35:27.974Z</time>
      </trkpt>
      <trkpt lat="45.37171" lon="4.24737">
        <ele>620.9</ele>
        <time>2026-08-30T09:35:33.024Z</time>
      </trkpt>
      <trkpt lat="45.37156" lon="4.24714">
        <ele>616.5</ele>
        <time>2026-08-30T09:35:51.978Z</time>
      </trkpt>
      <trkpt lat="45.37128" lon="4.24696">
        <ele>612.1</ele>
        <time>2026-08-30T09:36:15.981Z</time>
      </trkpt>
      <trkpt lat="45.37115" lon="4.24681">
        <ele>608.6</ele>
        <time>2026-08-30T09:36:28.988Z</time>
      </trkpt>
      <trkpt lat="45.37107" lon="4.24664">
        <ele>604.7</ele>
        <time>2026-08-30T09:36:40.977Z</time>
      </trkpt>
      <trkpt lat="45.37062" lon="4.24637">
        <ele>595.6</ele>
        <time>2026-08-30T09:37:20.977Z</time>
      </trkpt>
      <trkpt lat="45.37071" lon="4.24624">
        <ele>589.9</ele>
        <time>2026-08-30T09:37:32.980Z</time>
      </trkpt>
      <trkpt lat="45.37064" lon="4.24634">
        <ele>595.1</ele>
        <time>2026-08-30T09:37:46.980Z</time>
      </trkpt>
      <trkpt lat="45.37056" lon="4.24636">
        <ele>595.1</ele>
        <time>2026-08-30T09:37:52.977Z</time>
      </trkpt>
      <trkpt lat="45.36995" lon="4.24628">
        <ele>591.1</ele>
        <time>2026-08-30T09:38:39.996Z</time>
      </trkpt>
      <trkpt lat="45.36991" lon="4.24623">
        <ele>591.1</ele>
        <time>2026-08-30T09:38:43.989Z</time>
      </trkpt>
      <trkpt lat="45.36968" lon="4.24627">
        <ele>589.9</ele>
        <time>2026-08-30T09:39:05.977Z</time>
      </trkpt>
      <trkpt lat="45.36959" lon="4.24625">
        <ele>589.9</ele>
        <time>2026-08-30T09:39:12.978Z</time>
      </trkpt>
      <trkpt lat="45.36915" lon="4.24596">
        <ele>589.9</ele>
        <time>2026-08-30T09:39:48.977Z</time>
      </trkpt>
      <trkpt lat="45.36915" lon="4.24604">
        <ele>589.9</ele>
        <time>2026-08-30T09:40:15.977Z</time>
      </trkpt>
      <trkpt lat="45.36904" lon="4.24584">
        <ele>589.9</ele>
        <time>2026-08-30T09:40:33.983Z</time>
      </trkpt>
      <trkpt lat="45.36884" lon="4.24562">
        <ele>590.1</ele>
        <time>2026-08-30T09:40:54.979Z</time>
      </trkpt>
      <trkpt lat="45.36887" lon="4.24556">
        <ele>590.1</ele>
        <time>2026-08-30T09:40:57.978Z</time>
      </trkpt>
      <trkpt lat="45.36878" lon="4.24549">
        <ele>590.1</ele>
        <time>2026-08-30T09:41:04.976Z</time>
      </trkpt>
      <trkpt lat="45.36854" lon="4.24546">
        <ele>590.1</ele>
        <time>2026-08-30T09:41:22.977Z</time>
      </trkpt>
      <trkpt lat="45.3685" lon="4.24541">
        <ele>590.1</ele>
        <time>2026-08-30T09:41:28.980Z</time>
      </trkpt>
      <trkpt lat="45.3685" lon="4.24544">
        <ele>590.1</ele>
        <time>2026-08-30T09:41:35.977Z</time>
      </trkpt>
      <trkpt lat="45.36834" lon="4.2455">
        <ele>589.6</ele>
        <time>2026-08-30T09:41:46.977Z</time>
      </trkpt>
      <trkpt lat="45.36772" lon="4.24559">
        <ele>591.5</ele>
        <time>2026-08-30T09:42:35.977Z</time>
      </trkpt>
      <trkpt lat="45.36729" lon="4.2458">
        <ele>584.1</ele>
        <time>2026-08-30T09:43:07.976Z</time>
      </trkpt>
      <trkpt lat="45.36711" lon="4.24599">
        <ele>582.1</ele>
        <time>2026-08-30T09:43:30.976Z</time>
      </trkpt>
      <trkpt lat="45.36697" lon="4.24628">
        <ele>573.4</ele>
        <time>2026-08-30T09:43:53.977Z</time>
      </trkpt>
      <trkpt lat="45.36687" lon="4.24631">
        <ele>575.3</ele>
        <time>2026-08-30T09:44:04.976Z</time>
      </trkpt>
      <trkpt lat="45.36685" lon="4.24637">
        <ele>570</ele>
        <time>2026-08-30T09:44:16.000Z</time>
      </trkpt>
      <trkpt lat="45.36678" lon="4.24641">
        <ele>571</ele>
        <time>2026-08-30T09:44:22.977Z</time>
      </trkpt>
      <trkpt lat="45.36663" lon="4.24664">
        <ele>567.9</ele>
        <time>2026-08-30T09:44:48.976Z</time>
      </trkpt>
      <trkpt lat="45.36645" lon="4.2467">
        <ele>562.8</ele>
        <time>2026-08-30T09:45:13.976Z</time>
      </trkpt>
      <trkpt lat="45.36634" lon="4.24679">
        <ele>561.8</ele>
        <time>2026-08-30T09:45:32.981Z</time>
      </trkpt>
      <trkpt lat="45.3663" lon="4.24676">
        <ele>560</ele>
        <time>2026-08-30T09:45:37.003Z</time>
      </trkpt>
      <trkpt lat="45.36604" lon="4.24686">
        <ele>556.1</ele>
        <time>2026-08-30T09:46:10.902Z</time>
      </trkpt>
      <trkpt lat="45.366" lon="4.24681">
        <ele>554.8</ele>
        <time>2026-08-30T09:46:16.976Z</time>
      </trkpt>
      <trkpt lat="45.36572" lon="4.24674">
        <ele>552.3</ele>
        <time>2026-08-30T09:46:52.976Z</time>
      </trkpt>
      <trkpt lat="45.36547" lon="4.24676">
        <ele>546.5</ele>
        <time>2026-08-30T09:47:21.919Z</time>
      </trkpt>
      <trkpt lat="45.36508" lon="4.24667">
        <ele>533.7</ele>
        <time>2026-08-30T09:48:05.976Z</time>
      </trkpt>
      <trkpt lat="45.36486" lon="4.24673">
        <ele>524.7</ele>
        <time>2026-08-30T09:48:28.975Z</time>
      </trkpt>
      <trkpt lat="45.3645" lon="4.24696">
        <ele>527.4</ele>
        <time>2026-08-30T09:49:03.975Z</time>
      </trkpt>
      <trkpt lat="45.36445" lon="4.24708">
        <ele>522.7</ele>
        <time>2026-08-30T09:49:14.974Z</time>
      </trkpt>
      <trkpt lat="45.36431" lon="4.24718">
        <ele>522.1</ele>
        <time>2026-08-30T09:49:26.179Z</time>
      </trkpt>
      <trkpt lat="45.36398" lon="4.24731">
        <ele>523</ele>
        <time>2026-08-30T09:49:58.974Z</time>
      </trkpt>
      <trkpt lat="45.36386" lon="4.24723">
        <ele>531.9</ele>
        <time>2026-08-30T09:50:09.975Z</time>
      </trkpt>
      <trkpt lat="45.36378" lon="4.24693">
        <ele>542.4</ele>
        <time>2026-08-30T09:50:30.001Z</time>
      </trkpt>
      <trkpt lat="45.36355" lon="4.24698">
        <ele>544.1</ele>
        <time>2026-08-30T09:50:46.975Z</time>
      </trkpt>
      <trkpt lat="45.36346" lon="4.24692">
        <ele>514.4</ele>
        <time>2026-08-30T09:50:55.977Z</time>
      </trkpt>
      <trkpt lat="45.36323" lon="4.24685">
        <ele>521.2</ele>
        <time>2026-08-30T09:51:26.974Z</time>
      </trkpt>
      <trkpt lat="45.36301" lon="4.24634">
        <ele>553.2</ele>
        <time>2026-08-30T09:52:40.976Z</time>
      </trkpt>
      <trkpt lat="45.36294" lon="4.24638">
        <ele>553.1</ele>
        <time>2026-08-30T09:52:51.975Z</time>
      </trkpt>
      <trkpt lat="45.36287" lon="4.24656">
        <ele>558.1</ele>
        <time>2026-08-30T09:53:13.975Z</time>
      </trkpt>
      <trkpt lat="45.36286" lon="4.24708">
        <ele>565.6</ele>
        <time>2026-08-30T09:53:52.975Z</time>
      </trkpt>
      <trkpt lat="45.36272" lon="4.24747">
        <ele>571.5</ele>
        <time>2026-08-30T09:54:22.977Z</time>
      </trkpt>
      <trkpt lat="45.36278" lon="4.24796">
        <ele>575</ele>
        <time>2026-08-30T09:54:52.974Z</time>
      </trkpt>
      <trkpt lat="45.36275" lon="4.24809">
        <ele>581.1</ele>
        <time>2026-08-30T09:55:03.973Z</time>
      </trkpt>
      <trkpt lat="45.36278" lon="4.24824">
        <ele>574.8</ele>
        <time>2026-08-30T09:55:20.974Z</time>
      </trkpt>
      <trkpt lat="45.36272" lon="4.24832">
        <ele>575.4</ele>
        <time>2026-08-30T09:55:29.973Z</time>
      </trkpt>
      <trkpt lat="45.36274" lon="4.24834">
        <ele>579.9</ele>
        <time>2026-08-30T09:55:46.974Z</time>
      </trkpt>
      <trkpt lat="45.36253" lon="4.24833">
        <ele>589.5</ele>
        <time>2026-08-30T09:56:10.974Z</time>
      </trkpt>
      <trkpt lat="45.36248" lon="4.24827">
        <ele>589.3</ele>
        <time>2026-08-30T09:56:17.042Z</time>
      </trkpt>
      <trkpt lat="45.36246" lon="4.24802">
        <ele>593.2</ele>
        <time>2026-08-30T09:56:30.974Z</time>
      </trkpt>
      <trkpt lat="45.36254" lon="4.2478">
        <ele>597</ele>
        <time>2026-08-30T09:56:46.975Z</time>
      </trkpt>
      <trkpt lat="45.36256" lon="4.24757">
        <ele>595.4</ele>
        <time>2026-08-30T09:57:00.896Z</time>
      </trkpt>
      <trkpt lat="45.36248" lon="4.2474">
        <ele>595.6</ele>
        <time>2026-08-30T09:57:10.881Z</time>
      </trkpt>
      <trkpt lat="45.36231" lon="4.24724">
        <ele>591.5</ele>
        <time>2026-08-30T09:57:32.978Z</time>
      </trkpt>
      <trkpt lat="45.36234" lon="4.24708">
        <ele>598.5</ele>
        <time>2026-08-30T09:57:55.974Z</time>
      </trkpt>
      <trkpt lat="45.36229" lon="4.24701">
        <ele>598.7</ele>
        <time>2026-08-30T09:57:59.974Z</time>
      </trkpt>
      <trkpt lat="45.36227" lon="4.24682">
        <ele>601.5</ele>
        <time>2026-08-30T09:58:12.038Z</time>
      </trkpt>
      <trkpt lat="45.36232" lon="4.24649">
        <ele>598.9</ele>
        <time>2026-08-30T09:58:31.974Z</time>
      </trkpt>
      <trkpt lat="45.3622" lon="4.24623">
        <ele>597.1</ele>
        <time>2026-08-30T09:58:51.974Z</time>
      </trkpt>
      <trkpt lat="45.36208" lon="4.24622">
        <ele>593.5</ele>
        <time>2026-08-30T09:59:06.000Z</time>
      </trkpt>
      <trkpt lat="45.36207" lon="4.24627">
        <ele>596.7</ele>
        <time>2026-08-30T09:59:13.973Z</time>
      </trkpt>
      <trkpt lat="45.36211" lon="4.24628">
        <ele>598.2</ele>
        <time>2026-08-30T09:59:18.020Z</time>
      </trkpt>
      <trkpt lat="45.362" lon="4.24645">
        <ele>600.8</ele>
        <time>2026-08-30T09:59:39.975Z</time>
      </trkpt>
      <trkpt lat="45.36187" lon="4.24688">
        <ele>612.4</ele>
        <time>2026-08-30T10:00:22.973Z</time>
      </trkpt>
      <trkpt lat="45.36179" lon="4.24786">
        <ele>629.8</ele>
        <time>2026-08-30T10:01:56.984Z</time>
      </trkpt>
      <trkpt lat="45.3617" lon="4.2481">
        <ele>635</ele>
        <time>2026-08-30T10:02:21.973Z</time>
      </trkpt>
      <trkpt lat="45.36172" lon="4.24838">
        <ele>641.2</ele>
        <time>2026-08-30T10:02:45.544Z</time>
      </trkpt>
      <trkpt lat="45.3618" lon="4.2487">
        <ele>646.7</ele>
        <time>2026-08-30T10:03:12.972Z</time>
      </trkpt>
      <trkpt lat="45.36185" lon="4.24877">
        <ele>645.3</ele>
        <time>2026-08-30T10:03:19.981Z</time>
      </trkpt>
      <trkpt lat="45.36187" lon="4.24909">
        <ele>634.5</ele>
        <time>2026-08-30T10:03:38.973Z</time>
      </trkpt>
      <trkpt lat="45.36195" lon="4.24941">
        <ele>638.9</ele>
        <time>2026-08-30T10:04:01.973Z</time>
      </trkpt>
      <trkpt lat="45.36199" lon="4.24943">
        <ele>642.7</ele>
        <time>2026-08-30T10:04:07.973Z</time>
      </trkpt>
      <trkpt lat="45.36196" lon="4.24956">
        <ele>632.2</ele>
        <time>2026-08-30T10:04:30.972Z</time>
      </trkpt>
      <trkpt lat="45.36203" lon="4.24972">
        <ele>626.9</ele>
        <time>2026-08-30T10:10:24.992Z</time>
      </trkpt>
      <trkpt lat="45.362" lon="4.24969">
        <ele>624.1</ele>
        <time>2026-08-30T10:10:43.973Z</time>
      </trkpt>
      <trkpt lat="45.36206" lon="4.24984">
        <ele>633.4</ele>
        <time>2026-08-30T10:11:02.973Z</time>
      </trkpt>
      <trkpt lat="45.362" lon="4.24997">
        <ele>636</ele>
        <time>2026-08-30T10:11:15.972Z</time>
      </trkpt>
      <trkpt lat="45.36195" lon="4.25046">
        <ele>622.7</ele>
        <time>2026-08-30T10:11:21.972Z</time>
      </trkpt>
      <trkpt lat="45.36212" lon="4.25054">
        <ele>626.6</ele>
        <time>2026-08-30T10:11:28.972Z</time>
      </trkpt>
      <trkpt lat="45.36231" lon="4.25027">
        <ele>639.5</ele>
        <time>2026-08-30T10:11:52.972Z</time>
      </trkpt>
      <trkpt lat="45.36275" lon="4.25005">
        <ele>617.8</ele>
        <time>2026-08-30T10:12:40.970Z</time>
      </trkpt>
      <trkpt lat="45.36295" lon="4.25007">
        <ele>610</ele>
        <time>2026-08-30T10:12:57.970Z</time>
      </trkpt>
      <trkpt lat="45.36325" lon="4.24968">
        <ele>614.9</ele>
        <time>2026-08-30T10:13:30.921Z</time>
      </trkpt>
      <trkpt lat="45.3635" lon="4.24953">
        <ele>618.2</ele>
        <time>2026-08-30T10:13:52.971Z</time>
      </trkpt>
      <trkpt lat="45.36374" lon="4.24947">
        <ele>622.3</ele>
        <time>2026-08-30T10:14:15.971Z</time>
      </trkpt>
      <trkpt lat="45.36389" lon="4.24948">
        <ele>620.5</ele>
        <time>2026-08-30T10:14:28.970Z</time>
      </trkpt>
      <trkpt lat="45.36418" lon="4.24962">
        <ele>615.3</ele>
        <time>2026-08-30T10:14:53.971Z</time>
      </trkpt>
      <trkpt lat="45.3649" lon="4.24971">
        <ele>624.6</ele>
        <time>2026-08-30T10:15:51.970Z</time>
      </trkpt>
      <trkpt lat="45.36522" lon="4.24963">
        <ele>624.5</ele>
        <time>2026-08-30T10:16:18.971Z</time>
      </trkpt>
      <trkpt lat="45.36529" lon="4.24954">
        <ele>624.5</ele>
        <time>2026-08-30T10:16:26.977Z</time>
      </trkpt>
      <trkpt lat="45.36541" lon="4.24953">
        <ele>624.5</ele>
        <time>2026-08-30T10:16:44.970Z</time>
      </trkpt>
      <trkpt lat="45.36563" lon="4.2495">
        <ele>641.9</ele>
        <time>2026-08-30T10:16:55.087Z</time>
      </trkpt>
      <trkpt lat="45.36607" lon="4.24901">
        <ele>630.2</ele>
        <time>2026-08-30T10:17:57.970Z</time>
      </trkpt>
      <trkpt lat="45.36612" lon="4.24888">
        <ele>629</ele>
        <time>2026-08-30T10:18:04.879Z</time>
      </trkpt>
      <trkpt lat="45.36729" lon="4.24753">
        <ele>611.4</ele>
        <time>2026-08-30T10:20:01.900Z</time>
      </trkpt>
      <trkpt lat="45.36767" lon="4.24722">
        <ele>611.3</ele>
        <time>2026-08-30T10:20:33.971Z</time>
      </trkpt>
      <trkpt lat="45.36797" lon="4.24697">
        <ele>601.6</ele>
        <time>2026-08-30T10:20:50.970Z</time>
      </trkpt>
      <trkpt lat="45.368" lon="4.24724">
        <ele>604</ele>
        <time>2026-08-30T10:21:02.972Z</time>
      </trkpt>
      <trkpt lat="45.36797" lon="4.24733">
        <ele>598.1</ele>
        <time>2026-08-30T10:21:32.970Z</time>
      </trkpt>
      <trkpt lat="45.368" lon="4.24727">
        <ele>612.2</ele>
        <time>2026-08-30T10:21:57.969Z</time>
      </trkpt>
      <trkpt lat="45.36801" lon="4.24741">
        <ele>612.2</ele>
        <time>2026-08-30T10:22:06.970Z</time>
      </trkpt>
      <trkpt lat="45.368" lon="4.24731">
        <ele>612.2</ele>
        <time>2026-08-30T10:49:59.966Z</time>
      </trkpt>
      <trkpt lat="45.36806" lon="4.24745">
        <ele>599.3</ele>
        <time>2026-08-30T10:50:33.967Z</time>
      </trkpt>
      <trkpt lat="45.36804" lon="4.24788">
        <ele>598</ele>
        <time>2026-08-30T10:50:58.918Z</time>
      </trkpt>
      <trkpt lat="45.36807" lon="4.24802">
        <ele>597.5</ele>
        <time>2026-08-30T10:51:08.786Z</time>
      </trkpt>
      <trkpt lat="45.36805" lon="4.24821">
        <ele>597.6</ele>
        <time>2026-08-30T10:51:21.031Z</time>
      </trkpt>
      <trkpt lat="45.36811" lon="4.24883">
        <ele>599.6</ele>
        <time>2026-08-30T10:51:57.965Z</time>
      </trkpt>
      <trkpt lat="45.36805" lon="4.24936">
        <ele>602.1</ele>
        <time>2026-08-30T10:52:56.966Z</time>
      </trkpt>
      <trkpt lat="45.36809" lon="4.24954">
        <ele>603.6</ele>
        <time>2026-08-30T10:53:07.966Z</time>
      </trkpt>
      <trkpt lat="45.36814" lon="4.25173">
        <ele>626.4</ele>
        <time>2026-08-30T10:55:30.978Z</time>
      </trkpt>
      <trkpt lat="45.3683" lon="4.25545">
        <ele>644.9</ele>
        <time>2026-08-30T10:59:28.012Z</time>
      </trkpt>
      <trkpt lat="45.36835" lon="4.25544">
        <ele>647.3</ele>
        <time>2026-08-30T10:59:40.985Z</time>
      </trkpt>
      <trkpt lat="45.36855" lon="4.25523">
        <ele>652</ele>
        <time>2026-08-30T11:00:05.965Z</time>
      </trkpt>
      <trkpt lat="45.36857" lon="4.25504">
        <ele>652</ele>
        <time>2026-08-30T11:00:17.969Z</time>
      </trkpt>
      <trkpt lat="45.36925" lon="4.25398">
        <ele>644.2</ele>
        <time>2026-08-30T11:01:57.964Z</time>
      </trkpt>
      <trkpt lat="45.36987" lon="4.25339">
        <ele>673.1</ele>
        <time>2026-08-30T11:03:08.986Z</time>
      </trkpt>
      <trkpt lat="45.37006" lon="4.25315">
        <ele>673.2</ele>
        <time>2026-08-30T11:03:35.964Z</time>
      </trkpt>
      <trkpt lat="45.37047" lon="4.2529">
        <ele>672.7</ele>
        <time>2026-08-30T11:04:13.964Z</time>
      </trkpt>
      <trkpt lat="45.37073" lon="4.25285">
        <ele>674.4</ele>
        <time>2026-08-30T11:04:36.964Z</time>
      </trkpt>
      <trkpt lat="45.37088" lon="4.25275">
        <ele>672.3</ele>
        <time>2026-08-30T11:04:49.965Z</time>
      </trkpt>
      <trkpt lat="45.37156" lon="4.25255">
        <ele>678.4</ele>
        <time>2026-08-30T11:05:46.026Z</time>
      </trkpt>
      <trkpt lat="45.37242" lon="4.25206">
        <ele>676.5</ele>
        <time>2026-08-30T11:06:59.964Z</time>
      </trkpt>
      <trkpt lat="45.37294" lon="4.25204">
        <ele>681</ele>
        <time>2026-08-30T11:07:41.964Z</time>
      </trkpt>
      <trkpt lat="45.37334" lon="4.25183">
        <ele>680.2</ele>
        <time>2026-08-30T11:08:13.975Z</time>
      </trkpt>
      <trkpt lat="45.37349" lon="4.25181">
        <ele>677.3</ele>
        <time>2026-08-30T11:08:25.963Z</time>
      </trkpt>
      <trkpt lat="45.37363" lon="4.25172">
        <ele>677.5</ele>
        <time>2026-08-30T11:08:39.991Z</time>
      </trkpt>
      <trkpt lat="45.37367" lon="4.25205">
        <ele>679.2</ele>
        <time>2026-08-30T11:08:58.962Z</time>
      </trkpt>
      <trkpt lat="45.37365" lon="4.25219">
        <ele>678.2</ele>
        <time>2026-08-30T11:09:05.035Z</time>
      </trkpt>
      <trkpt lat="45.37356" lon="4.25217">
        <ele>679.2</ele>
        <time>2026-08-30T11:09:23.976Z</time>
      </trkpt>
      <trkpt lat="45.37351" lon="4.2524">
        <ele>675.6</ele>
        <time>2026-08-30T11:09:41.883Z</time>
      </trkpt>
      <trkpt lat="45.3736" lon="4.25273">
        <ele>673.5</ele>
        <time>2026-08-30T11:10:03.968Z</time>
      </trkpt>
      <trkpt lat="45.37395" lon="4.2533">
        <ele>677.7</ele>
        <time>2026-08-30T11:11:06.964Z</time>
      </trkpt>
      <trkpt lat="45.37457" lon="4.25401">
        <ele>665.4</ele>
        <time>2026-08-30T11:12:10.900Z</time>
      </trkpt>
      <trkpt lat="45.37482" lon="4.25418">
        <ele>662.7</ele>
        <time>2026-08-30T11:12:31.963Z</time>
      </trkpt>
      <trkpt lat="45.37488" lon="4.25417">
        <ele>660.4</ele>
        <time>2026-08-30T11:12:38.962Z</time>
      </trkpt>
      <trkpt lat="45.37516" lon="4.25447">
        <ele>663.5</ele>
        <time>2026-08-30T11:13:09.921Z</time>
      </trkpt>
      <trkpt lat="45.37524" lon="4.2545">
        <ele>665.4</ele>
        <time>2026-08-30T11:13:16.962Z</time>
      </trkpt>
      <trkpt lat="45.3757" lon="4.2549">
        <ele>656.8</ele>
        <time>2026-08-30T11:14:01.962Z</time>
      </trkpt>
      <trkpt lat="45.37598" lon="4.25501">
        <ele>653</ele>
        <time>2026-08-30T11:14:24.564Z</time>
      </trkpt>
      <trkpt lat="45.3762" lon="4.25503">
        <ele>647</ele>
        <time>2026-08-30T11:14:39.965Z</time>
      </trkpt>
      <trkpt lat="45.37624" lon="4.25499">
        <ele>647.1</ele>
        <time>2026-08-30T11:14:52.961Z</time>
      </trkpt>
      <trkpt lat="45.37651" lon="4.25513">
        <ele>652.8</ele>
        <time>2026-08-30T11:15:24.962Z</time>
      </trkpt>
      <trkpt lat="45.37684" lon="4.25548">
        <ele>649.6</ele>
        <time>2026-08-30T11:15:59.964Z</time>
      </trkpt>
      <trkpt lat="45.37693" lon="4.25568">
        <ele>651.2</ele>
        <time>2026-08-30T11:16:11.946Z</time>
      </trkpt>
      <trkpt lat="45.37703" lon="4.25638">
        <ele>649.1</ele>
        <time>2026-08-30T11:16:58.961Z</time>
      </trkpt>
      <trkpt lat="45.37715" lon="4.25676">
        <ele>639.1</ele>
        <time>2026-08-30T11:17:19.962Z</time>
      </trkpt>
      <trkpt lat="45.37738" lon="4.2571">
        <ele>635</ele>
        <time>2026-08-30T11:17:44.961Z</time>
      </trkpt>
      <trkpt lat="45.37762" lon="4.25733">
        <ele>637</ele>
        <time>2026-08-30T11:18:07.962Z</time>
      </trkpt>
      <trkpt lat="45.37818" lon="4.25755">
        <ele>640.4</ele>
        <time>2026-08-30T11:18:54.971Z</time>
      </trkpt>
      <trkpt lat="45.37822" lon="4.25752">
        <ele>640</ele>
        <time>2026-08-30T11:18:57.962Z</time>
      </trkpt>
      <trkpt lat="45.37823" lon="4.25759">
        <ele>640.6</ele>
        <time>2026-08-30T11:19:02.963Z</time>
      </trkpt>
      <trkpt lat="45.37818" lon="4.25767">
        <ele>633.3</ele>
        <time>2026-08-30T11:19:20.962Z</time>
      </trkpt>
      <trkpt lat="45.37818" lon="4.25764">
        <ele>625.3</ele>
        <time>2026-08-30T11:19:34.962Z</time>
      </trkpt>
      <trkpt lat="45.3781" lon="4.25766">
        <ele>619.4</ele>
        <time>2026-08-30T11:19:49.970Z</time>
      </trkpt>
      <trkpt lat="45.37812" lon="4.25774">
        <ele>621.1</ele>
        <time>2026-08-30T11:20:13.961Z</time>
      </trkpt>
      <trkpt lat="45.37798" lon="4.25768">
        <ele>621.8</ele>
        <time>2026-08-30T11:20:31.962Z</time>
      </trkpt>
      <trkpt lat="45.37711" lon="4.25803">
        <ele>609.8</ele>
        <time>2026-08-30T11:21:46.960Z</time>
      </trkpt>
      <trkpt lat="45.37686" lon="4.258">
        <ele>610.9</ele>
        <time>2026-08-30T11:22:09.980Z</time>
      </trkpt>
      <trkpt lat="45.37684" lon="4.25829">
        <ele>612.9</ele>
        <time>2026-08-30T11:22:28.962Z</time>
      </trkpt>
      <trkpt lat="45.37687" lon="4.2584">
        <ele>609.8</ele>
        <time>2026-08-30T11:22:37.946Z</time>
      </trkpt>
      <trkpt lat="45.37703" lon="4.25864">
        <ele>609.4</ele>
        <time>2026-08-30T11:23:01.961Z</time>
      </trkpt>
      <trkpt lat="45.37723" lon="4.25883">
        <ele>600.8</ele>
        <time>2026-08-30T11:23:25.973Z</time>
      </trkpt>
      <trkpt lat="45.37709" lon="4.25895">
        <ele>589.9</ele>
        <time>2026-08-30T11:23:46.968Z</time>
      </trkpt>
      <trkpt lat="45.37676" lon="4.25908">
        <ele>581.6</ele>
        <time>2026-08-30T11:24:22.960Z</time>
      </trkpt>
      <trkpt lat="45.37652" lon="4.25905">
        <ele>578</ele>
        <time>2026-08-30T11:24:45.961Z</time>
      </trkpt>
      <trkpt lat="45.37641" lon="4.25899">
        <ele>575</ele>
        <time>2026-08-30T11:24:56.960Z</time>
      </trkpt>
      <trkpt lat="45.37605" lon="4.25907">
        <ele>565.9</ele>
        <time>2026-08-30T11:25:32.973Z</time>
      </trkpt>
      <trkpt lat="45.37579" lon="4.259">
        <ele>564.4</ele>
        <time>2026-08-30T11:25:58.018Z</time>
      </trkpt>
      <trkpt lat="45.3755" lon="4.2593">
        <ele>568.3</ele>
        <time>2026-08-30T11:26:32.960Z</time>
      </trkpt>
      <trkpt lat="45.3754" lon="4.25958">
        <ele>558.1</ele>
        <time>2026-08-30T11:26:52.260Z</time>
      </trkpt>
      <trkpt lat="45.37509" lon="4.2598">
        <ele>560.5</ele>
        <time>2026-08-30T11:27:23.979Z</time>
      </trkpt>
      <trkpt lat="45.37441" lon="4.25985">
        <ele>571.2</ele>
        <time>2026-08-30T11:28:19.960Z</time>
      </trkpt>
      <trkpt lat="45.37404" lon="4.2597">
        <ele>567.2</ele>
        <time>2026-08-30T11:28:48.968Z</time>
      </trkpt>
      <trkpt lat="45.37386" lon="4.25958">
        <ele>564.4</ele>
        <time>2026-08-30T11:29:05.959Z</time>
      </trkpt>
      <trkpt lat="45.3738" lon="4.25961">
        <ele>563.5</ele>
        <time>2026-08-30T11:29:10.985Z</time>
      </trkpt>
      <trkpt lat="45.37379" lon="4.2598">
        <ele>561.3</ele>
        <time>2026-08-30T11:29:23.960Z</time>
      </trkpt>
      <trkpt lat="45.3738" lon="4.25977">
        <ele>561.8</ele>
        <time>2026-08-30T11:29:30.960Z</time>
      </trkpt>
      <trkpt lat="45.37405" lon="4.2605">
        <ele>559.7</ele>
        <time>2026-08-30T11:30:24.020Z</time>
      </trkpt>
      <trkpt lat="45.37422" lon="4.26116">
        <ele>558.4</ele>
        <time>2026-08-30T11:31:19.969Z</time>
      </trkpt>
      <trkpt lat="45.37429" lon="4.26145">
        <ele>567.9</ele>
        <time>2026-08-30T11:31:43.907Z</time>
      </trkpt>
      <trkpt lat="45.37459" lon="4.2618">
        <ele>565.1</ele>
        <time>2026-08-30T11:32:19.960Z</time>
      </trkpt>
      <trkpt lat="45.37509" lon="4.26219">
        <ele>565.9</ele>
        <time>2026-08-30T11:33:15.959Z</time>
      </trkpt>
      <trkpt lat="45.37563" lon="4.26262">
        <ele>566.1</ele>
        <time>2026-08-30T11:34:03.980Z</time>
      </trkpt>
      <trkpt lat="45.37619" lon="4.26289">
        <ele>563.4</ele>
        <time>2026-08-30T11:34:51.005Z</time>
      </trkpt>
      <trkpt lat="45.37695" lon="4.26312">
        <ele>555.3</ele>
        <time>2026-08-30T11:35:53.961Z</time>
      </trkpt>
      <trkpt lat="45.37721" lon="4.26326">
        <ele>551.9</ele>
        <time>2026-08-30T11:36:17.958Z</time>
      </trkpt>
      <trkpt lat="45.3775" lon="4.2633">
        <ele>547.4</ele>
        <time>2026-08-30T11:36:43.021Z</time>
      </trkpt>
      <trkpt lat="45.37766" lon="4.2634">
        <ele>534.3</ele>
        <time>2026-08-30T11:36:59.958Z</time>
      </trkpt>
      <trkpt lat="45.37773" lon="4.26361">
        <ele>547.1</ele>
        <time>2026-08-30T11:37:17.958Z</time>
      </trkpt>
      <trkpt lat="45.37775" lon="4.2639">
        <ele>541.2</ele>
        <time>2026-08-30T11:37:36.958Z</time>
      </trkpt>
      <trkpt lat="45.3778" lon="4.264">
        <ele>541.1</ele>
        <time>2026-08-30T11:37:43.906Z</time>
      </trkpt>
      <trkpt lat="45.37809" lon="4.2643">
        <ele>534.3</ele>
        <time>2026-08-30T11:38:18.974Z</time>
      </trkpt>
      <trkpt lat="45.37833" lon="4.26447">
        <ele>534.3</ele>
        <time>2026-08-30T11:38:44.958Z</time>
      </trkpt>
      <trkpt lat="45.37892" lon="4.26514">
        <ele>523</ele>
        <time>2026-08-30T11:39:52.961Z</time>
      </trkpt>
      <trkpt lat="45.37919" lon="4.26558">
        <ele>521.1</ele>
        <time>2026-08-30T11:40:25.959Z</time>
      </trkpt>
      <trkpt lat="45.37918" lon="4.26562">
        <ele>520.7</ele>
        <time>2026-08-30T11:40:31.967Z</time>
      </trkpt>
      <trkpt lat="45.37929" lon="4.26576">
        <ele>521.1</ele>
        <time>2026-08-30T11:40:45.957Z</time>
      </trkpt>
      <trkpt lat="45.38013" lon="4.26737">
        <ele>510</ele>
        <time>2026-08-30T11:42:37.958Z</time>
      </trkpt>
      <trkpt lat="45.38029" lon="4.2673">
        <ele>512.6</ele>
        <time>2026-08-30T11:42:53.956Z</time>
      </trkpt>
      <trkpt lat="45.38037" lon="4.26732">
        <ele>512.6</ele>
        <time>2026-08-30T11:42:59.956Z</time>
      </trkpt>
      <trkpt lat="45.38127" lon="4.26718">
        <ele>505.3</ele>
        <time>2026-08-30T11:44:10.956Z</time>
      </trkpt>
      <trkpt lat="45.38172" lon="4.26701">
        <ele>501.3</ele>
        <time>2026-08-30T11:44:46.956Z</time>
      </trkpt>
      <trkpt lat="45.38177" lon="4.26696">
        <ele>502.8</ele>
        <time>2026-08-30T11:44:51.963Z</time>
      </trkpt>
      <trkpt lat="45.38192" lon="4.26694">
        <ele>503.9</ele>
        <time>2026-08-30T11:45:03.957Z</time>
      </trkpt>
      <trkpt lat="45.38244" lon="4.2667">
        <ele>496.3</ele>
        <time>2026-08-30T11:45:48.957Z</time>
      </trkpt>
      <trkpt lat="45.3828" lon="4.26666">
        <ele>491.6</ele>
        <time>2026-08-30T11:46:15.956Z</time>
      </trkpt>
      <trkpt lat="45.38302" lon="4.26698">
        <ele>487</ele>
        <time>2026-08-30T11:46:43.898Z</time>
      </trkpt>
      <trkpt lat="45.38315" lon="4.26705">
        <ele>479.8</ele>
        <time>2026-08-30T11:46:55.548Z</time>
      </trkpt>
      <trkpt lat="45.38342" lon="4.267">
        <ele>480.7</ele>
        <time>2026-08-30T11:47:27.956Z</time>
      </trkpt>
      <trkpt lat="45.38355" lon="4.26705">
        <ele>487</ele>
        <time>2026-08-30T11:47:39.956Z</time>
      </trkpt>
      <trkpt lat="45.38375" lon="4.26763">
        <ele>484.5</ele>
        <time>2026-08-30T11:48:29.022Z</time>
      </trkpt>
      <trkpt lat="45.38373" lon="4.2678">
        <ele>484.5</ele>
        <time>2026-08-30T11:48:45.967Z</time>
      </trkpt>
      <trkpt lat="45.38414" lon="4.26841">
        <ele>488</ele>
        <time>2026-08-30T11:49:27.956Z</time>
      </trkpt>
      <trkpt lat="45.38451" lon="4.26876">
        <ele>485.6</ele>
        <time>2026-08-30T11:50:01.955Z</time>
      </trkpt>
      <trkpt lat="45.38451" lon="4.26885">
        <ele>485.2</ele>
        <time>2026-08-30T11:50:15.956Z</time>
      </trkpt>
      <trkpt lat="45.38501" lon="4.26932">
        <ele>490.1</ele>
        <time>2026-08-30T11:51:01.970Z</time>
      </trkpt>
      <trkpt lat="45.38521" lon="4.26946">
        <ele>490.1</ele>
        <time>2026-08-30T11:51:19.641Z</time>
      </trkpt>
      <trkpt lat="45.38565" lon="4.26948">
        <ele>492.3</ele>
        <time>2026-08-30T11:51:55.954Z</time>
      </trkpt>
      <trkpt lat="45.3859" lon="4.26927">
        <ele>494.4</ele>
        <time>2026-08-30T11:52:18.943Z</time>
      </trkpt>
      <trkpt lat="45.38637" lon="4.26913">
        <ele>491.6</ele>
        <time>2026-08-30T11:52:56.959Z</time>
      </trkpt>
      <trkpt lat="45.38639" lon="4.26916">
        <ele>491.8</ele>
        <time>2026-08-30T11:52:59.954Z</time>
      </trkpt>
      <trkpt lat="45.3866" lon="4.26856">
        <ele>491.6</ele>
        <time>2026-08-30T11:53:34.958Z</time>
      </trkpt>
      <trkpt lat="45.38691" lon="4.26723">
        <ele>484.6</ele>
        <time>2026-08-30T11:54:47.955Z</time>
      </trkpt>
      <trkpt lat="45.38706" lon="4.26698">
        <ele>486</ele>
        <time>2026-08-30T11:55:05.955Z</time>
      </trkpt>
      <trkpt lat="45.3876" lon="4.26699">
        <ele>476.3</ele>
        <time>2026-08-30T11:55:48.954Z</time>
      </trkpt>
      <trkpt lat="45.38783" lon="4.26681">
        <ele>475.7</ele>
        <time>2026-08-30T11:56:09.905Z</time>
      </trkpt>
      <trkpt lat="45.38802" lon="4.26658">
        <ele>474.6</ele>
        <time>2026-08-30T11:56:26.963Z</time>
      </trkpt>
      <trkpt lat="45.38811" lon="4.26657">
        <ele>474.6</ele>
        <time>2026-08-30T11:56:33.955Z</time>
      </trkpt>
      <trkpt lat="45.38832" lon="4.26666">
        <ele>471.7</ele>
        <time>2026-08-30T11:56:51.966Z</time>
      </trkpt>
      <trkpt lat="45.38843" lon="4.26656">
        <ele>469.8</ele>
        <time>2026-08-30T11:57:03.954Z</time>
      </trkpt>
      <trkpt lat="45.38853" lon="4.26661">
        <ele>471.8</ele>
        <time>2026-08-30T11:57:16.031Z</time>
      </trkpt>
      <trkpt lat="45.38857" lon="4.26658">
        <ele>466.9</ele>
        <time>2026-08-30T11:57:39.953Z</time>
      </trkpt>
      <trkpt lat="45.38862" lon="4.26666">
        <ele>467.1</ele>
        <time>2026-08-30T11:57:50.953Z</time>
      </trkpt>
      <trkpt lat="45.38917" lon="4.26677">
        <ele>466.3</ele>
        <time>2026-08-30T11:58:34.954Z</time>
      </trkpt>
      <trkpt lat="45.38917" lon="4.26697">
        <ele>464.5</ele>
        <time>2026-08-30T11:58:46.954Z</time>
      </trkpt>
      <trkpt lat="45.38923" lon="4.26703">
        <ele>464.7</ele>
        <time>2026-08-30T11:58:52.970Z</time>
      </trkpt>
      <trkpt lat="45.38937" lon="4.26694">
        <ele>464.7</ele>
        <time>2026-08-30T11:59:11.953Z</time>
      </trkpt>
      <trkpt lat="45.38957" lon="4.26697">
        <ele>464</ele>
        <time>2026-08-30T11:59:29.954Z</time>
      </trkpt>
      <trkpt lat="45.38983" lon="4.26715">
        <ele>462.2</ele>
        <time>2026-08-30T11:59:54.954Z</time>
      </trkpt>
      <trkpt lat="45.38985" lon="4.26712">
        <ele>464.4</ele>
        <time>2026-08-30T11:59:56.966Z</time>
      </trkpt>
      <trkpt lat="45.39012" lon="4.26718">
        <ele>462.6</ele>
        <time>2026-08-30T12:00:19.972Z</time>
      </trkpt>
      <trkpt lat="45.39021" lon="4.26715">
        <ele>459.7</ele>
        <time>2026-08-30T12:00:26.954Z</time>
        <extensions>
          <visugpx:TrkExtension xmlns:visugpx="https://www.visugpx.com/editgpx/">
            <visugpx:node>1</visugpx:node>
            </visugpx:TrkExtension>
        </extensions>
      </trkpt>
    </trkseg>
  </trk>
</gpx>